Time;durP1;ratioP1;P1;durP2;ratioP2;P2;SDS_P1;SDS_P2;PMS_P1;PMS_P2;Temp;Humidity;BMP_temperature;BMP_pressure;BME280_temperature;BME280_humidity;BME280_pressure;Samples;Min_cycle;Max_cycle;Signal;HPM_P1;HPM_P2
2022/12/13 00:01:10;;;;;;;70.57;53.47;;;13.10;55.50;;;;;;5030408;27;94139;-56
2022/12/13 00:03:35;;;;;;;72.20;53.42;;;13.10;55.50;;;;;;5046623;27;89551;-57
2022/12/13 00:06:04;;;;;;;70.80;52.92;;;13.00;55.40;;;;;;5043638;27;89902;-56
2022/12/13 00:08:30;;;;;;;69.85;52.78;;;13.00;55.40;;;;;;5043411;27;90981;-54
2022/12/13 00:11:00;;;;;;;70.68;53.58;;;13.00;55.40;;;;;;5046845;27;89856;-56
2022/12/13 00:13:27;;;;;;;68.22;52.13;;;13.00;55.50;;;;;;5046775;27;89645;-55
2022/12/13 00:16:01;;;;;;;70.88;53.25;;;12.90;55.40;;;;;;5042257;27;91165;-56
2022/12/13 00:18:27;;;;;;;69.70;52.03;;;12.90;55.30;;;;;;5045415;27;89754;-59
2022/12/13 00:20:53;;;;;;;68.63;52.60;;;12.90;55.40;;;;;;5047036;27;94861;-56
2022/12/13 00:23:19;;;;;;;70.93;52.40;;;12.90;55.40;;;;;;5048644;27;90650;-56
2022/12/13 00:25:44;;;;;;;71.30;52.65;;;12.90;55.30;;;;;;5037687;27;89925;-56
2022/12/13 00:28:10;;;;;;;69.03;52.95;;;12.90;55.40;;;;;;5044519;27;89838;-56
2022/12/13 00:30:36;;;;;;;67.90;52.20;;;12.80;55.20;;;;;;5042616;27;90019;-56
2022/12/13 00:33:01;;;;;;;70.82;53.35;;;12.90;55.10;;;;;;5045188;27;94263;-55
2022/12/13 00:35:27;;;;;;;70.45;53.55;;;12.80;55.20;;;;;;5039065;27;89709;-55
2022/12/13 00:37:53;;;;;;;69.32;52.75;;;12.80;55.40;;;;;;5046769;27;90056;-55
2022/12/13 00:40:20;;;;;;;71.13;53.58;;;12.70;55.20;;;;;;5055801;27;89759;-55
2022/12/13 00:42:46;;;;;;;70.18;52.28;;;12.80;55.20;;;;;;5045874;27;89671;-56
2022/12/13 00:45:12;;;;;;;70.88;53.35;;;12.80;55.20;;;;;;5035425;27;89814;-55
2022/12/13 00:47:37;;;;;;;70.95;53.00;;;12.70;55.10;;;;;;5049088;27;90853;-54
2022/12/13 00:50:05;;;;;;;69.28;52.33;;;12.70;55.10;;;;;;5037656;27;95826;-54
2022/12/13 00:52:32;;;;;;;71.50;53.35;;;12.70;55.10;;;;;;5037682;27;90043;-54
2022/12/13 00:54:57;;;;;;;68.97;52.58;;;12.70;55.10;;;;;;5028035;27;93409;-56
2022/12/13 00:57:23;;;;;;;70.45;53.20;;;12.70;55.20;;;;;;5033229;27;89929;-55
2022/12/13 00:59:49;;;;;;;70.90;53.05;;;12.70;55.10;;;;;;5039580;27;89518;-54
2022/12/13 01:02:15;;;;;;;69.63;52.65;;;12.60;55.10;;;;;;5038710;27;93209;-55
2022/12/13 01:04:40;;;;;;;69.55;52.70;;;12.60;55.70;;;;;;5035863;27;89947;-55
2022/12/13 01:07:06;;;;;;;69.50;52.65;;;12.60;55.00;;;;;;5047608;27;90903;-56
2022/12/13 01:09:32;;;;;;;69.82;53.08;;;12.60;55.70;;;;;;5042814;27;89354;-55
2022/12/13 01:12:04;;;;;;;72.15;53.55;;;12.60;55.00;;;;;;5044002;27;91009;-55
2022/12/13 01:14:33;;;;;;;71.30;53.22;;;12.50;55.10;;;;;;5030447;27;91485;-54
2022/12/13 01:16:58;;;;;;;68.85;52.47;;;12.60;55.20;;;;;;5022777;27;90006;-52
2022/12/13 01:19:26;;;;;;;69.03;52.38;;;12.50;55.20;;;;;;5043268;27;90065;-55
2022/12/13 01:22:00;;;;;;;68.10;52.83;;;12.50;55.20;;;;;;5044852;27;89499;-54
2022/12/13 01:24:27;;;;;;;68.90;52.50;;;12.50;55.10;;;;;;5049739;27;89667;-55
2022/12/13 01:26:53;;;;;;;69.63;52.20;;;12.50;55.10;;;;;;5037218;27;91707;-56
2022/12/13 01:29:20;;;;;;;68.80;52.15;;;12.50;55.20;;;;;;5042722;27;89877;-54
2022/12/13 01:31:47;;;;;;;71.00;53.63;;;12.40;55.20;;;;;;5039240;27;90176;-56
2022/12/13 01:34:15;;;;;;;69.28;52.85;;;12.50;55.20;;;;;;5052266;27;89634;-56
2022/12/13 01:36:42;;;;;;;67.93;51.88;;;12.50;55.20;;;;;;5023153;27;91185;-57
2022/12/13 01:39:10;;;;;;;69.13;52.30;;;12.40;55.10;;;;;;5035415;27;90654;-56
2022/12/13 01:41:36;;;;;;;71.30;53.42;;;12.40;55.10;;;;;;5031088;27;89602;-56
2022/12/13 01:44:36;;;;;;;70.88;52.80;;;12.40;55.10;;;;;;5024268;27;90117;-57
2022/12/13 01:47:01;;;;;;;70.57;52.88;;;12.40;55.10;;;;;;4968292;27;89955;-56
2022/12/13 01:49:27;;;;;;;68.80;52.45;;;12.40;55.00;;;;;;5036328;27;89404;-56
2022/12/13 01:52:01;;;;;;;70.03;53.42;;;12.40;55.10;;;;;;5021433;27;89887;-55
2022/12/13 01:54:35;;;;;;;73.40;52.72;;;12.40;55.00;;;;;;5029584;27;90599;-56
2022/12/13 01:57:03;;;;;;;69.85;52.72;;;12.30;55.00;;;;;;5032725;27;89712;-56
2022/12/13 01:59:30;;;;;;;67.30;52.50;;;12.30;55.70;;;;;;5036677;27;90105;-55
2022/12/13 02:01:55;;;;;;;67.63;51.78;;;12.30;55.10;;;;;;5017809;27;90673;-55
2022/12/13 02:04:40;;;;;;;68.22;52.05;;;12.30;55.10;;;;;;5021801;27;90250;-53
2022/12/13 02:07:06;;;;;;;67.38;51.90;;;12.30;55.10;;;;;;5025541;27;90595;-55
2022/12/13 02:09:34;;;;;;;70.35;52.92;;;12.30;55.10;;;;;;5025186;27;90149;-51
2022/12/13 02:12:01;;;;;;;69.35;52.15;;;12.20;55.00;;;;;;5034944;27;89608;-54
2022/12/13 02:14:26;;;;;;;66.67;51.80;;;12.20;55.10;;;;;;5026302;27;92040;-55
2022/12/13 02:17:10;;;;;;;68.37;52.37;;;12.20;55.10;;;;;;5028600;27;89506;-55
2022/12/13 02:20:00;;;;;;;69.72;52.78;;;12.20;55.10;;;;;;5030056;27;89213;-54
2022/12/13 02:22:44;;;;;;;69.10;52.60;;;12.20;55.10;;;;;;5030685;27;89846;-54
2022/12/13 02:25:19;;;;;;;67.30;52.43;;;12.20;55.00;;;;;;5027845;27;89972;-55
2022/12/13 02:28:03;;;;;;;67.70;52.17;;;12.20;55.50;;;;;;5027629;27;90930;-55
2022/12/13 02:30:45;;;;;;;66.38;51.85;;;12.10;55.00;;;;;;5038669;27;90098;-51
2022/12/13 02:33:18;;;;;;;67.18;52.05;;;12.20;55.00;;;;;;5031538;27;89514;-54
2022/12/13 02:35:54;;;;;;;67.75;51.97;;;12.10;55.60;;;;;;5028812;27;91917;-54
2022/12/13 02:38:40;;;;;;;66.78;52.17;;;12.10;55.00;;;;;;5024372;27;93876;-51
2022/12/13 02:41:17;;;;;;;67.53;52.60;;;12.10;55.00;;;;;;5036035;27;89995;-56
2022/12/13 02:43:46;;;;;;;67.13;52.03;;;12.00;55.10;;;;;;5041699;27;89581;-55
2022/12/13 02:46:15;;;;;;;67.73;51.93;;;12.00;55.10;;;;;;5049041;27;91791;-54
2022/12/13 02:48:42;;;;;;;69.20;52.87;;;12.00;55.20;;;;;;5050417;27;94182;-55
2022/12/13 02:51:10;;;;;;;68.43;52.03;;;12.00;55.00;;;;;;5050551;27;89267;-55
2022/12/13 02:53:38;;;;;;;67.35;52.30;;;12.00;55.00;;;;;;5043650;27;94614;-56
2022/12/13 02:56:04;;;;;;;67.75;51.78;;;12.00;55.10;;;;;;5049325;27;89532;-54
2022/12/13 02:58:36;;;;;;;67.63;52.10;;;12.00;55.00;;;;;;5019541;27;90622;-54
2022/12/13 03:01:12;;;;;;;66.87;51.47;;;12.00;55.00;;;;;;5042551;27;92172;-55
2022/12/13 03:04:05;;;;;;;68.30;52.33;;;12.00;55.00;;;;;;5038827;27;91166;-54
2022/12/13 03:06:39;;;;;;;66.82;51.85;;;11.90;55.00;;;;;;5042817;27;90155;-55
2022/12/13 03:09:24;;;;;;;66.82;52.30;;;11.90;55.50;;;;;;5036684;27;89985;-53
2022/12/13 03:14:38;;;;;;;65.75;51.33;;;11.90;55.10;;;;;;5046388;27;89968;-53
2022/12/13 03:17:06;;;;;;;65.90;51.53;;;11.90;55.10;;;;;;5051132;27;89327;-53
2022/12/13 03:19:31;;;;;;;66.40;51.93;;;11.90;55.00;;;;;;5045795;27;90112;-55
2022/12/13 03:21:57;;;;;;;63.93;51.07;;;11.90;55.10;;;;;;5034645;27;91406;-55
2022/12/13 03:24:23;;;;;;;65.87;51.27;;;11.90;55.00;;;;;;5048502;27;89371;-55
2022/12/13 03:26:50;;;;;;;67.05;51.47;;;11.80;55.00;;;;;;5050553;27;91128;-55
2022/12/13 03:29:16;;;;;;;68.13;51.87;;;11.80;55.00;;;;;;5042380;27;89671;-55
2022/12/13 03:31:42;;;;;;;67.07;51.17;;;11.80;55.10;;;;;;5041178;27;89960;-56
2022/12/13 03:34:07;;;;;;;67.30;51.77;;;11.80;55.00;;;;;;5052336;27;89263;-56
2022/12/13 03:36:33;;;;;;;67.70;51.97;;;11.80;55.00;;;;;;5048461;27;88884;-56
2022/12/13 03:38:59;;;;;;;66.90;52.23;;;11.80;55.00;;;;;;5040208;27;91847;-55
2022/12/13 03:41:30;;;;;;;65.63;51.07;;;11.80;55.00;;;;;;5039316;27;89630;-56
2022/12/13 03:44:01;;;;;;;66.50;51.25;;;11.70;55.00;;;;;;5047091;27;92941;-54
2022/12/13 03:46:27;;;;;;;66.35;51.47;;;11.70;55.00;;;;;;5051195;27;91692;-55
2022/12/13 03:48:53;;;;;;;66.95;51.15;;;11.70;55.00;;;;;;5050637;27;90258;-55
2022/12/13 03:51:18;;;;;;;66.53;52.20;;;11.70;54.90;;;;;;5041344;27;89473;-55
2022/12/13 03:53:44;;;;;;;65.60;51.25;;;11.70;55.00;;;;;;5042224;27;92091;-55
2022/12/13 03:56:10;;;;;;;65.43;51.33;;;11.70;55.00;;;;;;5040714;27;90000;-55
2022/12/13 03:58:35;;;;;;;67.60;52.00;;;11.70;55.10;;;;;;5041210;27;90362;-52
2022/12/13 04:01:01;;;;;;;66.23;52.23;;;11.70;55.00;;;;;;5034374;27;90383;-55
2022/12/13 04:03:27;;;;;;;64.50;51.20;;;11.70;55.10;;;;;;5062257;27;89442;-55
2022/12/13 04:05:52;;;;;;;65.90;51.47;;;11.70;55.00;;;;;;5044054;27;89267;-55
2022/12/13 04:08:18;;;;;;;67.00;52.27;;;11.60;54.90;;;;;;5040760;27;90216;-55
2022/12/13 04:10:44;;;;;;;68.97;51.90;;;11.70;55.20;;;;;;5010922;27;90484;-55
2022/12/13 04:15:54;;;;;;;63.63;50.47;;;11.60;55.10;;;;;;5037246;27;93657;-55
2022/12/13 04:18:20;;;;;;;64.37;50.40;;;11.50;55.00;;;;;;5044539;27;89886;-55
2022/12/13 04:20:46;;;;;;;66.73;51.60;;;11.60;55.20;;;;;;5037087;27;89283;-55
2022/12/13 04:23:11;;;;;;;67.00;51.33;;;11.50;55.00;;;;;;5054902;27;89415;-54
2022/12/13 04:25:38;;;;;;;65.67;51.17;;;11.50;55.00;;;;;;5047636;27;88299;-55
2022/12/13 04:28:04;;;;;;;66.03;51.43;;;11.50;55.00;;;;;;5042181;27;89635;-55
2022/12/13 04:30:29;;;;;;;65.63;51.87;;;11.50;55.10;;;;;;5033580;27;90106;-54
2022/12/13 04:32:55;;;;;;;66.77;51.93;;;11.50;54.90;;;;;;5048765;27;90647;-55
2022/12/13 04:35:21;;;;;;;66.77;51.13;;;11.50;55.10;;;;;;5037590;27;95061;-55
2022/12/13 04:37:47;;;;;;;66.37;51.57;;;11.50;55.00;;;;;;5043663;27;89979;-55
2022/12/13 04:40:13;;;;;;;66.50;51.37;;;11.50;55.00;;;;;;5048447;27;89616;-55
2022/12/13 04:42:38;;;;;;;65.30;51.60;;;11.50;55.00;;;;;;5040620;27;89502;-55
2022/12/13 04:45:04;;;;;;;64.97;51.20;;;11.50;55.10;;;;;;5050153;27;91265;-56
2022/12/13 04:47:30;;;;;;;65.13;51.30;;;11.50;55.00;;;;;;5037966;27;89771;-56
2022/12/13 04:49:56;;;;;;;65.63;50.73;;;11.50;55.00;;;;;;5050079;27;90148;-55
2022/12/13 04:52:21;;;;;;;65.97;51.53;;;11.50;55.00;;;;;;5038244;27;89792;-56
2022/12/13 04:54:47;;;;;;;65.87;50.93;;;11.50;54.90;;;;;;5029792;27;90957;-56
2022/12/13 04:57:13;;;;;;;67.07;52.40;;;11.40;54.80;;;;;;5043824;27;95476;-54
2022/12/13 04:59:39;;;;;;;67.27;51.60;;;11.40;55.00;;;;;;5036848;27;90581;-55
2022/12/13 05:02:06;;;;;;;67.13;51.73;;;11.50;55.00;;;;;;5036578;27;89829;-55
2022/12/13 05:04:32;;;;;;;65.50;51.03;;;11.50;54.80;;;;;;5038024;27;92071;-55
2022/12/13 05:06:58;;;;;;;64.90;50.80;;;11.50;54.90;;;;;;5039699;27;90360;-54
2022/12/13 05:09:24;;;;;;;65.33;51.20;;;11.50;54.90;;;;;;5033450;27;89684;-55
2022/12/13 05:11:49;;;;;;;66.43;51.63;;;11.50;54.80;;;;;;5043084;27;89075;-55
2022/12/13 05:14:15;;;;;;;63.53;50.67;;;11.40;54.80;;;;;;5049727;27;89012;-55
2022/12/13 05:16:41;;;;;;;65.67;51.23;;;11.40;54.80;;;;;;5043479;27;92823;-55
2022/12/13 05:19:06;;;;;;;65.77;50.93;;;11.40;55.00;;;;;;5055449;27;89786;-55
2022/12/13 05:21:33;;;;;;;65.00;51.10;;;11.40;55.00;;;;;;5050171;27;90709;-54
2022/12/13 05:24:00;;;;;;;64.93;51.30;;;11.40;54.90;;;;;;5046661;27;89268;-54
2022/12/13 05:26:27;;;;;;;64.43;50.90;;;11.40;55.10;;;;;;5047881;27;90500;-54
2022/12/13 05:28:55;;;;;;;65.27;50.73;;;11.40;54.90;;;;;;5037071;27;90558;-55
2022/12/13 05:31:21;;;;;;;64.50;51.93;;;11.40;55.00;;;;;;5032999;27;89543;-55
2022/12/13 05:33:46;;;;;;;65.17;50.87;;;11.30;54.90;;;;;;5040071;27;89476;-55
2022/12/13 05:36:12;;;;;;;63.37;50.93;;;11.30;55.20;;;;;;5038983;27;93339;-54
2022/12/13 05:38:38;;;;;;;63.10;50.30;;;11.40;54.90;;;;;;5048072;27;90005;-55
2022/12/13 05:41:04;;;;;;;65.60;51.33;;;11.40;55.00;;;;;;5029675;27;89370;-55
2022/12/13 05:43:29;;;;;;;64.47;50.87;;;11.30;55.00;;;;;;5014308;27;90154;-55
2022/12/13 05:45:55;;;;;;;67.47;51.97;;;11.30;55.10;;;;;;5016883;27;90410;-55
2022/12/13 05:48:21;;;;;;;69.37;51.30;;;11.30;54.80;;;;;;5017848;27;90510;-55
2022/12/13 05:50:46;;;;;;;65.70;51.37;;;11.30;54.60;;;;;;5024261;27;91728;-55
2022/12/13 05:53:12;;;;;;;64.47;50.87;;;11.30;54.60;;;;;;5017557;27;89901;-55
2022/12/13 05:55:38;;;;;;;65.43;51.33;;;11.30;55.00;;;;;;5019191;27;89540;-53
2022/12/13 05:58:04;;;;;;;67.87;51.67;;;11.30;54.60;;;;;;5026274;27;89427;-54
2022/12/13 06:00:32;;;;;;;66.03;50.73;;;11.30;55.10;;;;;;5027779;27;90234;-53
2022/12/13 06:02:59;;;;;;;65.57;51.20;;;11.20;55.00;;;;;;5005975;27;90645;-55
2022/12/13 06:05:24;;;;;;;65.77;51.47;;;11.20;55.10;;;;;;5009493;27;92095;-55
2022/12/13 06:07:52;;;;;;;67.53;52.53;;;11.10;55.30;;;;;;5002562;27;90954;-54
2022/12/13 06:10:18;;;;;;;65.30;51.10;;;11.10;55.30;;;;;;5020982;27;90808;-54
2022/12/13 06:12:44;;;;;;;70.20;51.90;;;11.10;55.20;;;;;;5019703;27;89441;-55
2022/12/13 06:15:09;;;;;;;67.60;51.70;;;11.20;54.90;;;;;;5029195;27;92132;-55
2022/12/13 06:17:35;;;;;;;66.43;51.13;;;11.30;55.00;;;;;;5023813;27;90161;-56
2022/12/13 06:20:05;;;;;;;67.50;51.07;;;11.30;55.30;;;;;;5027856;27;89380;-54
2022/12/13 06:22:31;;;;;;;66.87;51.83;;;11.40;55.00;;;;;;5015324;27;89276;-54
2022/12/13 06:24:57;;;;;;;68.93;52.03;;;11.40;54.90;;;;;;5011121;27;95055;-55
2022/12/13 06:27:23;;;;;;;65.67;51.13;;;11.50;54.70;;;;;;5027904;27;90390;-56
2022/12/13 06:29:48;;;;;;;64.30;51.03;;;11.40;54.90;;;;;;5024096;27;89417;-54
2022/12/13 06:32:14;;;;;;;67.20;52.00;;;11.50;54.80;;;;;;5016299;27;89118;-55
2022/12/13 06:34:40;;;;;;;65.10;51.23;;;11.50;54.70;;;;;;5017913;27;90882;-55
2022/12/13 06:37:09;;;;;;;71.23;55.03;;;11.50;54.70;;;;;;5009216;27;90458;-55
2022/12/13 06:39:35;;;;;;;72.80;55.60;;;11.50;54.70;;;;;;5017369;27;93655;-52
2022/12/13 06:42:04;;;;;;;71.37;54.97;;;11.50;54.80;;;;;;5031022;27;89755;-56
2022/12/13 06:44:30;;;;;;;74.10;55.17;;;11.50;55.30;;;;;;5035648;27;90090;-56
2022/12/13 06:46:56;;;;;;;68.83;54.43;;;11.60;55.40;;;;;;5043782;27;90831;-55
2022/12/13 06:49:22;;;;;;;69.77;53.50;;;11.70;55.10;;;;;;5043055;27;89861;-56
2022/12/13 06:51:48;;;;;;;68.47;53.10;;;11.70;54.70;;;;;;5045892;27;94354;-52
2022/12/13 06:54:13;;;;;;;69.50;53.13;;;11.80;54.50;;;;;;5043272;27;91100;-52
2022/12/13 06:56:39;;;;;;;67.67;52.93;;;11.90;54.20;;;;;;5042338;27;90984;-54
2022/12/13 06:59:04;;;;;;;68.50;53.53;;;11.90;54.10;;;;;;5030733;27;91039;-56
2022/12/13 07:01:30;;;;;;;70.33;52.93;;;11.90;53.70;;;;;;5041841;27;90851;-53
2022/12/13 07:03:57;;;;;;;68.00;52.87;;;12.00;53.90;;;;;;5039596;27;89715;-52
2022/12/13 07:06:24;;;;;;;68.43;52.53;;;12.00;53.60;;;;;;5037956;27;91472;-54
2022/12/13 07:08:55;;;;;;;68.97;52.93;;;12.00;53.90;;;;;;5033530;27;89942;-52
2022/12/13 07:11:23;;;;;;;67.60;51.70;;;12.10;53.30;;;;;;5065237;27;89708;-53
2022/12/13 07:13:50;;;;;;;71.97;52.60;;;12.00;53.40;;;;;;5043860;27;89887;-53
2022/12/13 07:16:16;;;;;;;67.27;52.87;;;11.90;53.60;;;;;;5044880;27;89942;-53
2022/12/13 07:18:41;;;;;;;67.07;52.10;;;12.00;53.60;;;;;;5030700;27;89728;-51
2022/12/13 07:21:09;;;;;;;70.20;52.60;;;12.00;53.30;;;;;;5039893;27;90882;-55
2022/12/13 07:23:35;;;;;;;69.70;52.63;;;12.00;53.40;;;;;;5041469;27;90275;-54
2022/12/13 07:26:01;;;;;;;66.55;52.00;;;12.00;53.10;;;;;;5034410;27;89996;-52
2022/12/13 07:28:27;;;;;;;68.13;52.20;;;12.00;53.30;;;;;;5045815;27;90736;-49
2022/12/13 07:30:53;;;;;;;71.27;52.77;;;11.90;53.40;;;;;;5042681;27;89363;-49
2022/12/13 07:33:18;;;;;;;67.65;51.50;;;11.90;53.20;;;;;;5052643;27;91829;-50
2022/12/13 07:35:44;;;;;;;68.38;52.22;;;11.90;53.30;;;;;;5038591;27;89711;-55
2022/12/13 07:38:10;;;;;;;69.82;53.28;;;11.90;53.10;;;;;;5039131;27;90604;-51
2022/12/13 07:40:38;;;;;;;70.23;53.90;;;11.90;52.90;;;;;;5044687;27;89260;-48
2022/12/13 07:43:04;;;;;;;67.60;53.07;;;11.90;52.90;;;;;;5013819;27;90424;-52
2022/12/13 07:45:30;;;;;;;67.20;52.63;;;11.80;52.90;;;;;;5015586;27;90260;-53
2022/12/13 07:47:56;;;;;;;67.77;52.53;;;11.80;52.80;;;;;;5021351;27;91073;-51
2022/12/13 07:50:21;;;;;;;66.87;52.30;;;11.90;52.80;;;;;;5028673;27;89826;-52
2022/12/13 07:52:48;;;;;;;68.27;52.63;;;12.00;52.70;;;;;;5018632;27;89718;-53
2022/12/13 07:55:14;;;;;;;68.03;52.80;;;12.00;52.50;;;;;;5026136;27;89827;-51
2022/12/13 07:57:40;;;;;;;65.60;52.17;;;12.10;52.40;;;;;;5028183;27;91306;-52
2022/12/13 08:00:06;;;;;;;67.87;52.10;;;12.00;52.40;;;;;;5016369;27;91132;-53
2022/12/13 08:02:32;;;;;;;66.03;52.13;;;12.10;52.40;;;;;;5016850;27;90597;-51
2022/12/13 08:04:57;;;;;;;68.97;52.87;;;12.10;52.20;;;;;;5024671;27;90203;-55
2022/12/13 08:07:23;;;;;;;67.20;51.80;;;12.10;52.10;;;;;;5035282;27;89454;-51
2022/12/13 08:09:49;;;;;;;67.50;51.90;;;12.20;52.10;;;;;;5027772;27;91647;-56
2022/12/13 08:12:14;;;;;;;69.03;51.87;;;12.60;51.50;;;;;;5014838;27;92369;-56
2022/12/13 08:14:40;;;;;;;68.10;52.27;;;12.80;50.90;;;;;;5018800;27;90470;-50
2022/12/13 08:17:05;;;;;;;68.15;51.78;;;12.90;51.20;;;;;;5026443;27;92410;-54
2022/12/13 08:19:31;;;;;;;67.40;51.63;;;13.10;50.40;;;;;;5019614;27;89994;-58
2022/12/13 08:21:57;;;;;;;67.45;51.72;;;13.20;50.10;;;;;;5020296;27;91941;-58
2022/12/13 08:24:24;;;;;;;70.75;52.25;;;13.20;49.40;;;;;;5029510;27;89810;-57
2022/12/13 08:26:50;;;;;;;67.57;52.00;;;13.20;49.40;;;;;;4994803;27;90290;-51
2022/12/13 08:29:16;;;;;;;69.13;52.90;;;13.10;49.50;;;;;;5028571;27;88980;-57
2022/12/13 08:31:42;;;;;;;70.15;52.75;;;13.20;49.80;;;;;;4999031;27;89662;-51
2022/12/13 08:34:08;;;;;;;72.82;52.75;;;13.20;49.60;;;;;;5010179;27;89378;-53
2022/12/13 08:36:34;;;;;;;70.78;52.03;;;13.30;49.50;;;;;;5017378;27;95046;-54
2022/12/13 08:39:01;;;;;;;68.53;51.92;;;13.30;49.30;;;;;;5025153;27;91447;-46
2022/12/13 08:41:28;;;;;;;70.05;53.08;;;13.40;49.30;;;;;;5014658;27;90406;-50
2022/12/13 08:43:55;;;;;;;69.13;52.13;;;13.40;48.80;;;;;;5044157;27;90029;-48
2022/12/13 08:46:20;;;;;;;70.60;52.28;;;13.50;48.90;;;;;;5024516;27;92451;-55
2022/12/13 08:48:46;;;;;;;72.30;52.53;;;13.50;48.60;;;;;;5003379;27;94144;-54
2022/12/13 08:51:14;;;;;;;69.85;52.47;;;13.50;48.70;;;;;;5042931;27;89229;-56
2022/12/13 08:53:40;;;;;;;73.25;52.33;;;13.50;48.70;;;;;;5039397;27;90066;-57
2022/12/13 08:56:09;;;;;;;69.63;53.05;;;13.60;48.50;;;;;;5033649;27;89456;-53
2022/12/13 08:58:36;;;;;;;68.82;52.25;;;13.60;48.60;;;;;;5038895;27;96992;-56
2022/12/13 09:01:05;;;;;;;68.95;51.90;;;13.60;48.60;;;;;;5034243;27;90841;-53
2022/12/13 09:03:31;;;;;;;70.55;52.58;;;13.60;48.70;;;;;;5035746;27;91537;-52
2022/12/13 09:05:57;;;;;;;72.22;52.17;;;13.60;48.80;;;;;;5048846;27;89769;-52
2022/12/13 09:08:22;;;;;;;69.05;51.33;;;13.70;48.80;;;;;;5036789;27;90181;-51
2022/12/13 09:11:01;;;;;;;70.53;52.58;;;13.70;48.60;;;;;;5021203;27;91322;-54
2022/12/13 09:13:31;;;;;;;70.32;52.28;;;13.60;48.60;;;;;;5044302;27;91377;-53
2022/12/13 09:15:58;;;;;;;68.88;52.65;;;13.70;48.60;;;;;;5041472;27;91331;-52
2022/12/13 09:18:24;;;;;;;74.30;52.17;;;13.80;48.70;;;;;;5032480;27;89976;-55
2022/12/13 09:20:50;;;;;;;71.00;52.22;;;13.70;48.70;;;;;;5038355;27;92635;-46
2022/12/13 09:23:16;;;;;;;69.95;52.63;;;13.80;48.60;;;;;;5032678;27;89766;-52
2022/12/13 09:25:42;;;;;;;68.30;52.20;;;13.80;48.60;;;;;;5017910;27;90461;-57
2022/12/13 09:28:08;;;;;;;68.93;52.92;;;13.90;48.30;;;;;;5039434;27;90162;-55
2022/12/13 09:30:36;;;;;;;70.72;52.67;;;13.90;48.50;;;;;;5045884;27;89699;-55
2022/12/13 09:33:05;;;;;;;70.35;52.75;;;13.90;48.50;;;;;;5033002;27;89669;-55
2022/12/13 09:35:30;;;;;;;70.22;52.83;;;14.00;48.40;;;;;;5038848;27;90650;-59
2022/12/13 09:37:56;;;;;;;70.25;52.80;;;14.00;48.60;;;;;;5037808;27;90806;-58
2022/12/13 09:40:24;;;;;;;70.72;52.22;;;14.10;48.70;;;;;;5043662;27;90446;-59
2022/12/13 09:42:53;;;;;;;70.05;52.50;;;14.10;48.60;;;;;;5034177;27;90553;-50
2022/12/13 09:45:19;;;;;;;71.65;52.53;;;14.00;48.80;;;;;;5031436;27;90229;-53
2022/12/13 09:47:47;;;;;;;77.03;52.53;;;13.90;48.80;;;;;;5037779;27;89998;-52
2022/12/13 09:50:18;;;;;;;74.32;51.63;;;13.90;48.50;;;;;;5041061;27;91575;-46
2022/12/13 09:52:45;;;;;;;;;;;13.90;48.90;;;;;;5028545;27;92317;-54
2022/12/13 09:55:31;;;;;;;69.88;52.30;;;14.00;48.80;;;;;;5030994;27;92694;-49
2022/12/13 09:57:59;;;;;;;69.90;52.53;;;14.10;48.60;;;;;;5040903;27;89957;-50
2022/12/13 10:00:33;;;;;;;70.43;52.10;;;14.10;48.30;;;;;;5042016;27;90679;-55
2022/12/13 10:03:00;;;;;;;69.07;51.95;;;14.00;48.40;;;;;;5043157;27;90686;-55
2022/12/13 10:05:34;;;;;;;69.78;52.85;;;14.20;48.40;;;;;;5038738;27;91968;-53
2022/12/13 10:08:08;;;;;;;71.60;52.63;;;14.20;48.40;;;;;;5031999;27;90986;-53
2022/12/13 10:10:33;;;;;;;70.10;52.28;;;14.30;48.20;;;;;;5043066;27;89809;-58
2022/12/13 10:13:14;;;;;;;73.10;52.67;;;14.40;48.00;;;;;;5041885;27;90233;-51
2022/12/13 10:15:43;;;;;;;71.03;52.20;;;14.40;47.90;;;;;;5046937;27;91034;-58
2022/12/13 10:18:15;;;;;;;72.03;53.20;;;14.40;48.00;;;;;;5036497;27;89880;-57
2022/12/13 10:20:40;;;;;;;;;;;14.40;47.80;;;;;;5043411;27;90286;-54
2022/12/13 10:23:06;;;;;;;70.13;52.33;;;14.50;48.00;;;;;;5043597;27;90336;-56
2022/12/13 10:25:47;;;;;;;72.38;52.40;;;14.50;47.80;;;;;;5045422;27;91432;-49
2022/12/13 10:28:16;;;;;;;70.57;52.40;;;14.50;48.20;;;;;;5050031;27;89461;-54
2022/12/13 10:30:43;;;;;;;73.57;52.35;;;14.50;48.10;;;;;;5042663;27;96114;-51
2022/12/13 10:33:21;;;;;;;70.85;52.15;;;14.30;48.30;;;;;;5037456;27;89913;-50
2022/12/13 10:36:05;;;;;;;69.82;52.15;;;14.20;48.80;;;;;;5020653;27;92791;-58
2022/12/13 10:38:38;;;;;;;71.20;52.47;;;14.40;48.40;;;;;;5041180;27;91479;-55
2022/12/13 10:41:24;;;;;;;72.22;52.40;;;14.50;47.90;;;;;;5046237;27;92015;-58
2022/12/13 10:44:23;;;;;;;71.00;51.95;;;14.60;48.00;;;;;;5041297;27;92019;-48
2022/12/13 10:47:09;;;;;;;72.20;52.15;;;14.60;47.40;;;;;;5048017;27;92785;-48
2022/12/13 10:49:55;;;;;;;71.60;52.05;;;14.70;47.40;;;;;;5051903;27;89450;-52
2022/12/13 10:52:23;;;;;;;72.25;52.55;;;14.80;47.40;;;;;;5032340;27;95390;-55
2022/12/13 10:54:50;;;;;;;72.43;53.17;;;14.80;47.20;;;;;;5037612;27;91538;-53
2022/12/13 10:57:17;;;;;;;73.57;52.67;;;14.90;47.30;;;;;;5055736;27;89809;-57
2022/12/13 10:59:44;;;;;;;71.93;52.85;;;15.10;47.20;;;;;;5038332;27;89031;-51
2022/12/13 11:02:30;;;;;;;72.03;52.92;;;15.10;46.90;;;;;;5041025;27;91647;-51
2022/12/13 11:04:57;;;;;;;71.13;52.20;;;15.10;46.80;;;;;;5039050;27;89906;-51
2022/12/13 11:07:31;;;;;;;73.40;53.55;;;15.10;46.90;;;;;;5031967;27;93119;-55
2022/12/13 11:10:14;;;;;;;70.88;52.60;;;15.10;46.90;;;;;;5039510;27;91314;-56
2022/12/13 11:12:40;;;;;;;73.35;52.47;;;15.00;46.80;;;;;;5033072;27;91060;-54
2022/12/13 11:15:07;;;;;;;75.45;53.47;;;14.90;46.90;;;;;;5031147;27;97230;-57
2022/12/13 11:17:44;;;;;;;86.00;59.13;;;14.90;47.50;;;;;;5041874;27;91922;-56
2022/12/13 11:20:19;;;;;;;86.25;57.35;;;14.80;48.50;;;;;;5041995;27;90069;-55
2022/12/13 11:22:45;;;;;;;81.72;56.30;;;14.80;52.10;;;;;;5037325;27;90023;-52
2022/12/13 11:25:17;;;;;;;80.38;55.40;;;14.80;51.30;;;;;;5028585;27;91653;-53
2022/12/13 11:28:01;;;;;;;78.03;54.50;;;14.90;49.60;;;;;;5032146;27;92915;-55
2022/12/13 11:30:36;;;;;;;75.18;53.90;;;14.90;49.00;;;;;;5030187;27;93179;-55
2022/12/13 11:33:20;;;;;;;80.32;54.15;;;14.90;48.70;;;;;;5033068;27;92255;-54
2022/12/13 11:36:26;;;;;;;74.43;54.03;;;14.90;49.10;;;;;;5024984;27;91218;-59
2022/12/13 11:39:05;;;;;;;73.65;53.83;;;14.80;48.70;;;;;;5011748;27;91070;-54
2022/12/13 11:41:49;;;;;;;75.68;53.50;;;14.80;49.30;;;;;;5046740;27;91280;-51
2022/12/13 11:44:22;;;;;;;76.35;54.20;;;14.80;49.30;;;;;;5028965;27;91444;-54
2022/12/13 11:46:53;;;;;;;73.15;53.33;;;14.90;49.40;;;;;;5025270;27;93249;-54
2022/12/13 11:49:39;;;;;;;79.13;54.00;;;14.80;49.40;;;;;;5038524;27;89897;-55
2022/12/13 11:52:33;;;;;;;76.75;53.75;;;14.80;49.50;;;;;;5045376;27;88943;-60
2022/12/13 11:55:04;;;;;;;78.05;53.78;;;14.80;49.60;;;;;;5043110;27;91235;-49
2022/12/13 11:57:41;;;;;;;80.13;53.95;;;14.80;49.60;;;;;;5035550;27;89767;-51
2022/12/13 12:00:26;;;;;;;74.93;53.55;;;14.80;49.70;;;;;;5040854;27;91926;-47
2022/12/13 12:02:57;;;;;;;73.25;53.10;;;14.90;49.50;;;;;;5041182;27;92995;-51
2022/12/13 12:05:35;;;;;;;74.15;53.42;;;14.90;49.50;;;;;;5040631;27;90839;-52
2022/12/13 12:08:15;;;;;;;74.75;53.72;;;14.80;49.40;;;;;;5030929;27;90597;-48
2022/12/13 12:10:43;;;;;;;74.80;53.85;;;14.90;49.70;;;;;;5037851;27;94079;-56
2022/12/13 12:13:36;;;;;;;76.15;54.28;;;14.90;50.10;;;;;;5042871;27;90182;-53
2022/12/13 12:16:24;;;;;;;77.10;53.70;;;14.90;49.60;;;;;;5035779;27;94301;-52
2022/12/13 12:18:51;;;;;;;74.57;54.13;;;15.00;49.10;;;;;;5027409;27;89630;-51
2022/12/13 12:21:39;;;;;;;77.88;53.47;;;15.00;48.90;;;;;;5040456;27;89861;-61
2022/12/13 12:24:30;;;;;;;75.07;54.03;;;15.10;48.90;;;;;;5050612;27;90074;-56
2022/12/13 12:27:14;;;;;;;72.57;53.53;;;15.10;49.00;;;;;;5033015;27;91165;-56
2022/12/13 12:29:58;;;;;;;75.28;54.05;;;15.10;49.00;;;;;;5041004;27;99515;-55
2022/12/13 12:32:45;;;;;;;79.45;55.08;;;15.10;49.20;;;;;;5033921;27;89944;-53
2022/12/13 12:35:17;;;;;;;77.07;55.08;;;15.00;49.20;;;;;;5035332;27;90219;-53
2022/12/13 12:37:57;;;;;;;77.15;54.50;;;15.00;49.20;;;;;;5037414;27;91955;-53
2022/12/13 12:40:41;;;;;;;75.75;54.22;;;15.00;47.90;;;;;;5038180;27;91201;-51
2022/12/13 12:43:14;;;;;;;74.63;54.15;;;15.10;47.70;;;;;;5024352;27;90841;-51
2022/12/13 12:46:04;;;;;;;77.97;54.67;;;15.10;47.40;;;;;;5020465;27;94892;-53